Claryville, Kentucky
Current Conditions -  °F | °C
As of 7:53 PM on Monday 24 Nov 2014 (Local Time) from KLUK Reporting Station
Overcast Overcast  
Wind Chill: 37°   Ceiling: 6000
Heat Index: 44°   Visibility: 10mi
Dew Point: 34°   Wind: 14mph
Humidity: 68%   Direction: 250°WSW
Pressure: 29.87"   Gusts: NA
Location:  38.9134°N, 84.39°W
Report Text: KLUK 250053Z 25012KT 10SM OVC060 07/01 A2987 RMK AO2 SLP116 T00670011
Loading
Personal Weather Stations






























Interactive Weather Map New forecast layout! Learn more

10-Day Weather Forecast

Advertisements
Track Severe Weather on mobile